sensor_id;sensor_type;location;lat;lon;timestamp;temperature;humidity
14682;DHT22;7429;52.498;13.480;2024-03-29T00:02:45;9.40;99.90
14682;DHT22;7429;52.498;13.480;2024-03-29T00:05:46;9.50;99.90
14682;DHT22;7429;52.498;13.480;2024-03-29T00:08:47;9.40;99.90
14682;DHT22;7429;52.498;13.480;2024-03-29T00:11:49;9.40;99.90
14682;DHT22;7429;52.498;13.480;2024-03-29T00:14:50;9.40;99.90
14682;DHT22;7429;52.498;13.480;2024-03-29T00:17:53;9.40;99.90
14682;DHT22;7429;52.498;13.480;2024-03-29T00:20:54;9.40;99.90
14682;DHT22;7429;52.498;13.480;2024-03-29T00:23:55;9.40;99.90
14682;DHT22;7429;52.498;13.480;2024-03-29T00:26:56;9.40;99.90
14682;DHT22;7429;52.498;13.480;2024-03-29T00:29:58;9.50;99.90
14682;DHT22;7429;52.498;13.480;2024-03-29T00:33:02;9.60;99.90
14682;DHT22;7429;52.498;13.480;2024-03-29T00:36:04;9.60;99.90
14682;DHT22;7429;52.498;13.480;2024-03-29T00:39:05;9.60;99.90
14682;DHT22;7429;52.498;13.480;2024-03-29T00:42:06;9.60;99.90
14682;DHT22;7429;52.498;13.480;2024-03-29T00:45:08;9.60;99.90
14682;DHT22;7429;52.498;13.480;2024-03-29T00:48:11;9.60;99.90
14682;DHT22;7429;52.498;13.480;2024-03-29T00:51:12;9.60;99.90
14682;DHT22;7429;52.498;13.480;2024-03-29T00:54:13;9.40;99.90
14682;DHT22;7429;52.498;13.480;2024-03-29T00:57:14;9.30;99.90
14682;DHT22;7429;52.498;13.480;2024-03-29T01:00:16;9.20;99.90
14682;DHT22;7429;52.498;13.480;2024-03-29T01:03:18;9.00;99.90
14682;DHT22;7429;52.498;13.480;2024-03-29T01:06:20;8.90;99.90
14682;DHT22;7429;52.498;13.480;2024-03-29T01:09:21;8.80;99.90
14682;DHT22;7429;52.498;13.480;2024-03-29T01:12:23;8.80;99.90
14682;DHT22;7429;52.498;13.480;2024-03-29T01:15:24;8.70;99.90
14682;DHT22;7429;52.498;13.480;2024-03-29T01:18:29;8.60;99.90
14682;DHT22;7429;52.498;13.480;2024-03-29T01:21:31;8.60;99.90
14682;DHT22;7429;52.498;13.480;2024-03-29T01:24:33;8.50;99.90
14682;DHT22;7429;52.498;13.480;2024-03-29T01:27:34;8.40;99.90
14682;DHT22;7429;52.498;13.480;2024-03-29T01:30:35;8.30;99.90
14682;DHT22;7429;52.498;13.480;2024-03-29T01:33:40;8.20;99.90
14682;DHT22;7429;52.498;13.480;2024-03-29T01:36:41;8.10;99.90
14682;DHT22;7429;52.498;13.480;2024-03-29T01:39:43;8.00;99.90
14682;DHT22;7429;52.498;13.480;2024-03-29T01:42:44;8.00;99.90
14682;DHT22;7429;52.498;13.480;2024-03-29T01:45:48;7.90;99.90
14682;DHT22;7429;52.498;13.480;2024-03-29T01:48:52;7.90;99.90
14682;DHT22;7429;52.498;13.480;2024-03-29T01:51:55;7.80;99.90
14682;DHT22;7429;52.498;13.480;2024-03-29T01:54:57;7.80;99.90
14682;DHT22;7429;52.498;13.480;2024-03-29T01:57:59;7.70;99.90
14682;DHT22;7429;52.498;13.480;2024-03-29T02:01:03;7.60;99.90
14682;DHT22;7429;52.498;13.480;2024-03-29T02:04:08;7.60;99.90
14682;DHT22;7429;52.498;13.480;2024-03-29T02:07:11;7.60;99.90
14682;DHT22;7429;52.498;13.480;2024-03-29T02:10:14;7.50;99.90
14682;DHT22;7429;52.498;13.480;2024-03-29T02:13:17;7.50;99.90
14682;DHT22;7429;52.498;13.480;2024-03-29T02:16:19;7.50;99.90
14682;DHT22;7429;52.498;13.480;2024-03-29T02:19:27;7.40;99.90
14682;DHT22;7429;52.498;13.480;2024-03-29T02:22:29;7.40;99.90
14682;DHT22;7429;52.498;13.480;2024-03-29T02:25:34;7.30;99.90
14682;DHT22;7429;52.498;13.480;2024-03-29T02:28:36;7.30;99.90
14682;DHT22;7429;52.498;13.480;2024-03-29T02:31:38;7.30;99.90
14682;DHT22;7429;52.498;13.480;2024-03-29T02:34:40;7.30;99.90
14682;DHT22;7429;52.498;13.480;2024-03-29T02:37:42;7.30;99.90
14682;DHT22;7429;52.498;13.480;2024-03-29T02:40:46;7.30;99.90
14682;DHT22;7429;52.498;13.480;2024-03-29T02:43:48;7.30;99.90
14682;DHT22;7429;52.498;13.480;2024-03-29T02:46:50;7.20;99.90
14682;DHT22;7429;52.498;13.480;2024-03-29T02:49:52;7.20;99.90
14682;DHT22;7429;52.498;13.480;2024-03-29T02:52:54;7.10;99.90
14682;DHT22;7429;52.498;13.480;2024-03-29T02:55:57;7.10;99.90
14682;DHT22;7429;52.498;13.480;2024-03-29T02:58:59;7.00;99.90
14682;DHT22;7429;52.498;13.480;2024-03-29T03:02:01;7.00;99.90
14682;DHT22;7429;52.498;13.480;2024-03-29T03:05:03;7.00;99.90
14682;DHT22;7429;52.498;13.480;2024-03-29T03:08:06;6.90;99.90
14682;DHT22;7429;52.498;13.480;2024-03-29T03:11:27;6.80;99.90
14682;DHT22;7429;52.498;13.480;2024-03-29T03:14:29;6.80;99.90
14682;DHT22;7429;52.498;13.480;2024-03-29T03:17:31;6.80;99.90
14682;DHT22;7429;52.498;13.480;2024-03-29T03:20:33;6.70;99.90
14682;DHT22;7429;52.498;13.480;2024-03-29T03:23:35;6.70;99.90
14682;DHT22;7429;52.498;13.480;2024-03-29T03:26:39;6.70;99.90
14682;DHT22;7429;52.498;13.480;2024-03-29T03:29:40;6.60;99.90
14682;DHT22;7429;52.498;13.480;2024-03-29T03:32:42;6.60;99.90
14682;DHT22;7429;52.498;13.480;2024-03-29T03:35:43;6.60;99.90
14682;DHT22;7429;52.498;13.480;2024-03-29T03:38:46;6.60;99.90
14682;DHT22;7429;52.498;13.480;2024-03-29T03:41:48;6.60;99.90
14682;DHT22;7429;52.498;13.480;2024-03-29T03:44:51;6.60;99.90
14682;DHT22;7429;52.498;13.480;2024-03-29T03:47:53;6.60;99.90
14682;DHT22;7429;52.498;13.480;2024-03-29T03:50:54;6.60;99.90
14682;DHT22;7429;52.498;13.480;2024-03-29T03:53:56;6.50;99.90
14682;DHT22;7429;52.498;13.480;2024-03-29T03:56:59;6.50;99.90
14682;DHT22;7429;52.498;13.480;2024-03-29T04:00:01;6.40;99.90
14682;DHT22;7429;52.498;13.480;2024-03-29T04:03:12;6.50;99.90
14682;DHT22;7429;52.498;13.480;2024-03-29T04:06:15;6.40;99.90
14682;DHT22;7429;52.498;13.480;2024-03-29T04:09:16;6.40;99.90
14682;DHT22;7429;52.498;13.480;2024-03-29T04:12:19;6.30;99.90
14682;DHT22;7429;52.498;13.480;2024-03-29T04:15:21;6.30;99.90
14682;DHT22;7429;52.498;13.480;2024-03-29T04:18:23;6.30;99.90
14682;DHT22;7429;52.498;13.480;2024-03-29T04:21:24;6.30;99.90
14682;DHT22;7429;52.498;13.480;2024-03-29T04:24:28;6.30;99.90
14682;DHT22;7429;52.498;13.480;2024-03-29T04:27:31;6.30;99.90
14682;DHT22;7429;52.498;13.480;2024-03-29T04:30:32;6.30;99.90
14682;DHT22;7429;52.498;13.480;2024-03-29T04:33:34;6.20;99.90
14682;DHT22;7429;52.498;13.480;2024-03-29T04:36:35;6.20;99.90
14682;DHT22;7429;52.498;13.480;2024-03-29T04:39:37;6.20;99.90
14682;DHT22;7429;52.498;13.480;2024-03-29T04:42:41;6.20;99.90
14682;DHT22;7429;52.498;13.480;2024-03-29T04:45:44;6.20;99.90
14682;DHT22;7429;52.498;13.480;2024-03-29T04:48:46;6.20;99.90
14682;DHT22;7429;52.498;13.480;2024-03-29T04:51:48;6.10;99.90
14682;DHT22;7429;52.498;13.480;2024-03-29T04:54:51;6.10;99.90
14682;DHT22;7429;52.498;13.480;2024-03-29T04:57:54;6.10;99.90
14682;DHT22;7429;52.498;13.480;2024-03-29T05:00:56;6.10;99.90
14682;DHT22;7429;52.498;13.480;2024-03-29T05:03:58;6.10;99.90
14682;DHT22;7429;52.498;13.480;2024-03-29T05:07:01;6.00;99.90
14682;DHT22;7429;52.498;13.480;2024-03-29T05:10:03;6.10;99.90
14682;DHT22;7429;52.498;13.480;2024-03-29T05:13:09;6.00;99.90
14682;DHT22;7429;52.498;13.480;2024-03-29T05:16:11;6.10;99.90
14682;DHT22;7429;52.498;13.480;2024-03-29T05:19:14;6.10;99.90
14682;DHT22;7429;52.498;13.480;2024-03-29T05:22:17;6.10;99.90
14682;DHT22;7429;52.498;13.480;2024-03-29T05:25:19;6.10;99.90
14682;DHT22;7429;52.498;13.480;2024-03-29T05:28:22;6.10;99.90
14682;DHT22;7429;52.498;13.480;2024-03-29T05:31:24;6.20;99.90
14682;DHT22;7429;52.498;13.480;2024-03-29T05:34:26;6.30;99.90
14682;DHT22;7429;52.498;13.480;2024-03-29T05:37:28;6.30;99.90
14682;DHT22;7429;52.498;13.480;2024-03-29T05:40:32;6.40;99.90
14682;DHT22;7429;52.498;13.480;2024-03-29T05:43:35;6.40;99.90
14682;DHT22;7429;52.498;13.480;2024-03-29T05:46:37;6.40;99.90
14682;DHT22;7429;52.498;13.480;2024-03-29T05:49:40;6.50;99.90
14682;DHT22;7429;52.498;13.480;2024-03-29T05:52:43;6.50;99.90
14682;DHT22;7429;52.498;13.480;2024-03-29T05:55:45;6.60;99.90
14682;DHT22;7429;52.498;13.480;2024-03-29T05:58:48;6.60;99.90
14682;DHT22;7429;52.498;13.480;2024-03-29T06:01:50;6.60;99.90
14682;DHT22;7429;52.498;13.480;2024-03-29T06:04:52;6.70;99.90
14682;DHT22;7429;52.498;13.480;2024-03-29T06:07:54;6.70;99.90
14682;DHT22;7429;52.498;13.480;2024-03-29T06:10:56;6.70;99.90
14682;DHT22;7429;52.498;13.480;2024-03-29T06:14:01;6.80;99.90
14682;DHT22;7429;52.498;13.480;2024-03-29T06:17:20;6.80;99.90
14682;DHT22;7429;52.498;13.480;2024-03-29T06:20:25;6.90;99.90
14682;DHT22;7429;52.498;13.480;2024-03-29T06:23:27;6.90;99.90
14682;DHT22;7429;52.498;13.480;2024-03-29T06:26:29;7.00;99.90
14682;DHT22;7429;52.498;13.480;2024-03-29T06:29:33;7.10;99.90
14682;DHT22;7429;52.498;13.480;2024-03-29T06:32:35;7.10;99.90
14682;DHT22;7429;52.498;13.480;2024-03-29T06:35:37;7.20;99.90
14682;DHT22;7429;52.498;13.480;2024-03-29T06:38:40;7.30;99.90
14682;DHT22;7429;52.498;13.480;2024-03-29T06:41:42;7.30;99.90
14682;DHT22;7429;52.498;13.480;2024-03-29T06:44:46;7.40;99.90
14682;DHT22;7429;52.498;13.480;2024-03-29T06:47:48;7.40;99.90
14682;DHT22;7429;52.498;13.480;2024-03-29T06:50:50;7.50;99.90
14682;DHT22;7429;52.498;13.480;2024-03-29T06:53:52;7.60;99.90
14682;DHT22;7429;52.498;13.480;2024-03-29T06:56:54;7.60;99.90
14682;DHT22;7429;52.498;13.480;2024-03-29T06:59:57;7.70;99.90
14682;DHT22;7429;52.498;13.480;2024-03-29T07:03:00;7.90;99.90
14682;DHT22;7429;52.498;13.480;2024-03-29T07:06:02;8.00;99.90
14682;DHT22;7429;52.498;13.480;2024-03-29T07:09:04;8.10;99.90
14682;DHT22;7429;52.498;13.480;2024-03-29T07:12:06;8.20;99.90
14682;DHT22;7429;52.498;13.480;2024-03-29T07:15:10;8.30;99.90
14682;DHT22;7429;52.498;13.480;2024-03-29T07:18:13;8.40;99.90
14682;DHT22;7429;52.498;13.480;2024-03-29T07:21:15;8.50;99.90
14682;DHT22;7429;52.498;13.480;2024-03-29T07:24:18;8.60;99.90
14682;DHT22;7429;52.498;13.480;2024-03-29T07:27:20;8.70;99.90
14682;DHT22;7429;52.498;13.480;2024-03-29T07:30:24;8.70;99.90
14682;DHT22;7429;52.498;13.480;2024-03-29T07:33:26;8.90;99.90
14682;DHT22;7429;52.498;13.480;2024-03-29T07:36:28;9.00;99.90
14682;DHT22;7429;52.498;13.480;2024-03-29T07:39:34;9.10;99.90
14682;DHT22;7429;52.498;13.480;2024-03-29T07:42:36;9.10;99.90
14682;DHT22;7429;52.498;13.480;2024-03-29T07:45:40;9.10;99.90
14682;DHT22;7429;52.498;13.480;2024-03-29T07:48:42;9.20;99.90
14682;DHT22;7429;52.498;13.480;2024-03-29T07:51:44;9.30;99.90
14682;DHT22;7429;52.498;13.480;2024-03-29T07:54:46;9.40;99.90
14682;DHT22;7429;52.498;13.480;2024-03-29T07:57:48;9.40;99.90
14682;DHT22;7429;52.498;13.480;2024-03-29T08:00:53;9.50;99.90
14682;DHT22;7429;52.498;13.480;2024-03-29T08:03:55;9.60;99.90
14682;DHT22;7429;52.498;13.480;2024-03-29T08:06:57;9.70;99.90
14682;DHT22;7429;52.498;13.480;2024-03-29T08:09:59;9.80;99.90
14682;DHT22;7429;52.498;13.480;2024-03-29T08:13:01;9.80;99.90
14682;DHT22;7429;52.498;13.480;2024-03-29T08:16:05;10.00;99.90
14682;DHT22;7429;52.498;13.480;2024-03-29T08:19:08;10.00;99.90
14682;DHT22;7429;52.498;13.480;2024-03-29T08:22:10;10.10;99.90
14682;DHT22;7429;52.498;13.480;2024-03-29T08:25:12;10.20;99.90
14682;DHT22;7429;52.498;13.480;2024-03-29T08:28:15;10.30;99.90
14682;DHT22;7429;52.498;13.480;2024-03-29T08:31:18;10.30;99.90
14682;DHT22;7429;52.498;13.480;2024-03-29T08:34:20;10.40;99.90
14682;DHT22;7429;52.498;13.480;2024-03-29T08:37:23;10.50;99.90
14682;DHT22;7429;52.498;13.480;2024-03-29T08:40:27;10.40;99.90
14682;DHT22;7429;52.498;13.480;2024-03-29T08:43:30;10.50;99.90
14682;DHT22;7429;52.498;13.480;2024-03-29T08:46:33;10.50;99.90
14682;DHT22;7429;52.498;13.480;2024-03-29T08:49:35;10.60;99.90
14682;DHT22;7429;52.498;13.480;2024-03-29T08:52:38;10.70;99.90
14682;DHT22;7429;52.498;13.480;2024-03-29T08:55:40;10.80;99.90
14682;DHT22;7429;52.498;13.480;2024-03-29T08:58:43;10.80;99.90
14682;DHT22;7429;52.498;13.480;2024-03-29T09:01:46;10.90;99.90
14682;DHT22;7429;52.498;13.480;2024-03-29T09:04:49;10.90;99.90
14682;DHT22;7429;52.498;13.480;2024-03-29T09:07:51;11.00;99.90
14682;DHT22;7429;52.498;13.480;2024-03-29T09:10:53;11.00;99.90
14682;DHT22;7429;52.498;13.480;2024-03-29T09:13:55;11.20;99.90
14682;DHT22;7429;52.498;13.480;2024-03-29T09:17:00;11.20;99.90
14682;DHT22;7429;52.498;13.480;2024-03-29T09:20:04;11.30;99.90
14682;DHT22;7429;52.498;13.480;2024-03-29T09:23:07;11.50;99.90
14682;DHT22;7429;52.498;13.480;2024-03-29T09:26:09;11.60;99.90
14682;DHT22;7429;52.498;13.480;2024-03-29T09:29:13;11.70;99.90
14682;DHT22;7429;52.498;13.480;2024-03-29T09:32:18;11.80;99.90
14682;DHT22;7429;52.498;13.480;2024-03-29T09:35:20;11.80;99.90
14682;DHT22;7429;52.498;13.480;2024-03-29T09:38:23;11.80;99.90
14682;DHT22;7429;52.498;13.480;2024-03-29T09:41:25;11.90;99.90
14682;DHT22;7429;52.498;13.480;2024-03-29T09:44:32;12.00;99.90
14682;DHT22;7429;52.498;13.480;2024-03-29T09:47:39;12.10;99.90
14682;DHT22;7429;52.498;13.480;2024-03-29T09:50:41;12.20;99.90
14682;DHT22;7429;52.498;13.480;2024-03-29T09:53:43;12.20;99.90
14682;DHT22;7429;52.498;13.480;2024-03-29T09:56:45;12.30;99.90
14682;DHT22;7429;52.498;13.480;2024-03-29T09:59:48;12.30;99.90
14682;DHT22;7429;52.498;13.480;2024-03-29T10:02:53;12.30;99.90
14682;DHT22;7429;52.498;13.480;2024-03-29T10:05:58;12.40;99.90
14682;DHT22;7429;52.498;13.480;2024-03-29T10:09:01;12.40;99.90
14682;DHT22;7429;52.498;13.480;2024-03-29T10:12:03;12.50;99.90
14682;DHT22;7429;52.498;13.480;2024-03-29T10:15:07;12.50;99.90
14682;DHT22;7429;52.498;13.480;2024-03-29T10:18:16;12.60;99.90
14682;DHT22;7429;52.498;13.480;2024-03-29T10:21:25;12.60;99.90
14682;DHT22;7429;52.498;13.480;2024-03-29T10:24:27;12.60;99.90
14682;DHT22;7429;52.498;13.480;2024-03-29T10:27:29;12.50;99.90
14682;DHT22;7429;52.498;13.480;2024-03-29T10:30:31;12.50;99.90
14682;DHT22;7429;52.498;13.480;2024-03-29T10:33:34;12.30;99.90
14682;DHT22;7429;52.498;13.480;2024-03-29T10:36:37;12.20;99.90
14682;DHT22;7429;52.498;13.480;2024-03-29T10:39:42;12.20;99.90
14682;DHT22;7429;52.498;13.480;2024-03-29T10:42:45;12.10;99.90
14682;DHT22;7429;52.498;13.480;2024-03-29T10:45:49;12.10;99.90
14682;DHT22;7429;52.498;13.480;2024-03-29T10:48:57;12.10;99.90
14682;DHT22;7429;52.498;13.480;2024-03-29T10:51:59;12.00;99.90
14682;DHT22;7429;52.498;13.480;2024-03-29T10:55:04;12.00;99.90
14682;DHT22;7429;52.498;13.480;2024-03-29T10:58:07;12.00;99.90
14682;DHT22;7429;52.498;13.480;2024-03-29T11:01:13;12.00;99.90
14682;DHT22;7429;52.498;13.480;2024-03-29T11:04:22;12.10;99.90
14682;DHT22;7429;52.498;13.480;2024-03-29T11:07:28;12.10;99.90
14682;DHT22;7429;52.498;13.480;2024-03-29T11:10:36;12.20;99.90
14682;DHT22;7429;52.498;13.480;2024-03-29T11:13:49;12.20;99.90
14682;DHT22;7429;52.498;13.480;2024-03-29T11:16:55;12.30;99.90
14682;DHT22;7429;52.498;13.480;2024-03-29T11:20:01;12.60;99.90
14682;DHT22;7429;52.498;13.480;2024-03-29T11:23:08;12.70;99.90
14682;DHT22;7429;52.498;13.480;2024-03-29T11:26:11;12.90;99.90
14682;DHT22;7429;52.498;13.480;2024-03-29T11:29:20;13.10;99.90
14682;DHT22;7429;52.498;13.480;2024-03-29T11:32:37;13.10;99.90
14682;DHT22;7429;52.498;13.480;2024-03-29T11:35:43;13.20;99.90
14682;DHT22;7429;52.498;13.480;2024-03-29T11:38:45;13.40;99.90
14682;DHT22;7429;52.498;13.480;2024-03-29T11:41:49;13.40;99.90
14682;DHT22;7429;52.498;13.480;2024-03-29T11:44:51;13.40;99.90
14682;DHT22;7429;52.498;13.480;2024-03-29T11:47:55;13.30;99.90
14682;DHT22;7429;52.498;13.480;2024-03-29T11:50:59;13.30;99.90
14682;DHT22;7429;52.498;13.480;2024-03-29T11:54:02;13.30;99.90
14682;DHT22;7429;52.498;13.480;2024-03-29T11:57:04;13.30;99.90
14682;DHT22;7429;52.498;13.480;2024-03-29T12:00:07;13.30;99.90
14682;DHT22;7429;52.498;13.480;2024-03-29T12:03:11;13.30;99.90
14682;DHT22;7429;52.498;13.480;2024-03-29T12:06:14;13.20;99.90
14682;DHT22;7429;52.498;13.480;2024-03-29T12:09:18;13.10;99.90
14682;DHT22;7429;52.498;13.480;2024-03-29T12:12:20;13.10;99.90
14682;DHT22;7429;52.498;13.480;2024-03-29T12:15:23;13.00;99.90
14682;DHT22;7429;52.498;13.480;2024-03-29T12:18:26;13.10;99.90
14682;DHT22;7429;52.498;13.480;2024-03-29T12:21:30;13.00;99.90
14682;DHT22;7429;52.498;13.480;2024-03-29T12:24:32;13.00;99.90
14682;DHT22;7429;52.498;13.480;2024-03-29T12:27:34;13.10;99.90
14682;DHT22;7429;52.498;13.480;2024-03-29T12:30:37;13.20;99.90
14682;DHT22;7429;52.498;13.480;2024-03-29T12:33:40;13.30;99.90
14682;DHT22;7429;52.498;13.480;2024-03-29T12:36:46;13.40;99.90
14682;DHT22;7429;52.498;13.480;2024-03-29T12:39:48;13.60;99.90
14682;DHT22;7429;52.498;13.480;2024-03-29T12:42:54;13.70;99.90
14682;DHT22;7429;52.498;13.480;2024-03-29T12:45:57;13.80;99.90
14682;DHT22;7429;52.498;13.480;2024-03-29T12:48:59;14.00;99.90
14682;DHT22;7429;52.498;13.480;2024-03-29T12:52:05;14.30;99.90
14682;DHT22;7429;52.498;13.480;2024-03-29T12:55:08;14.60;99.90
14682;DHT22;7429;52.498;13.480;2024-03-29T12:58:11;14.80;99.90
14682;DHT22;7429;52.498;13.480;2024-03-29T13:01:13;15.10;99.90
14682;DHT22;7429;52.498;13.480;2024-03-29T13:04:15;15.10;99.90
14682;DHT22;7429;52.498;13.480;2024-03-29T13:07:19;15.10;99.90
14682;DHT22;7429;52.498;13.480;2024-03-29T13:10:21;15.10;99.90
14682;DHT22;7429;52.498;13.480;2024-03-29T13:13:23;15.20;99.90
14682;DHT22;7429;52.498;13.480;2024-03-29T13:16:25;15.30;99.90
14682;DHT22;7429;52.498;13.480;2024-03-29T13:19:27;15.30;99.90
14682;DHT22;7429;52.498;13.480;2024-03-29T13:22:31;15.30;99.90
14682;DHT22;7429;52.498;13.480;2024-03-29T13:25:33;15.20;99.90
14682;DHT22;7429;52.498;13.480;2024-03-29T13:28:36;15.20;99.90
14682;DHT22;7429;52.498;13.480;2024-03-29T13:31:38;15.20;99.90
14682;DHT22;7429;52.498;13.480;2024-03-29T13:34:40;15.20;99.90
14682;DHT22;7429;52.498;13.480;2024-03-29T13:37:44;15.10;99.90
14682;DHT22;7429;52.498;13.480;2024-03-29T13:40:47;15.20;99.90
14682;DHT22;7429;52.498;13.480;2024-03-29T13:43:49;15.20;99.90
14682;DHT22;7429;52.498;13.480;2024-03-29T13:46:51;15.30;99.90
14682;DHT22;7429;52.498;13.480;2024-03-29T13:49:54;15.40;99.90
14682;DHT22;7429;52.498;13.480;2024-03-29T13:52:58;15.60;99.90
14682;DHT22;7429;52.498;13.480;2024-03-29T13:56:01;15.70;99.90
14682;DHT22;7429;52.498;13.480;2024-03-29T13:59:04;15.80;99.90
14682;DHT22;7429;52.498;13.480;2024-03-29T14:02:06;15.90;99.90
14682;DHT22;7429;52.498;13.480;2024-03-29T14:05:08;16.00;99.90
14682;DHT22;7429;52.498;13.480;2024-03-29T14:08:12;16.00;99.90
14682;DHT22;7429;52.498;13.480;2024-03-29T14:11:14;16.10;99.90
14682;DHT22;7429;52.498;13.480;2024-03-29T14:14:19;16.40;99.90
14682;DHT22;7429;52.498;13.480;2024-03-29T14:17:21;16.90;99.90
14682;DHT22;7429;52.498;13.480;2024-03-29T14:20:23;16.90;99.90
14682;DHT22;7429;52.498;13.480;2024-03-29T14:23:26;16.90;99.90
14682;DHT22;7429;52.498;13.480;2024-03-29T14:26:29;16.80;99.90
14682;DHT22;7429;52.498;13.480;2024-03-29T14:29:31;16.80;99.90
14682;DHT22;7429;52.498;13.480;2024-03-29T14:32:34;16.90;99.90
14682;DHT22;7429;52.498;13.480;2024-03-29T14:35:36;16.80;99.90
14682;DHT22;7429;52.498;13.480;2024-03-29T14:38:39;16.70;99.90
14682;DHT22;7429;52.498;13.480;2024-03-29T14:41:42;16.50;99.90
14682;DHT22;7429;52.498;13.480;2024-03-29T14:44:44;16.60;99.90
14682;DHT22;7429;52.498;13.480;2024-03-29T14:47:46;17.10;99.90
14682;DHT22;7429;52.498;13.480;2024-03-29T14:50:48;17.30;99.90
14682;DHT22;7429;52.498;13.480;2024-03-29T14:53:52;17.30;99.90
14682;DHT22;7429;52.498;13.480;2024-03-29T14:56:54;17.10;99.90
14682;DHT22;7429;52.498;13.480;2024-03-29T14:59:56;17.00;99.90
14682;DHT22;7429;52.498;13.480;2024-03-29T15:02:59;17.00;99.90
14682;DHT22;7429;52.498;13.480;2024-03-29T15:06:01;16.90;99.90
14682;DHT22;7429;52.498;13.480;2024-03-29T15:09:04;16.80;99.90
14682;DHT22;7429;52.498;13.480;2024-03-29T15:12:06;16.70;99.90
14682;DHT22;7429;52.498;13.480;2024-03-29T15:15:09;16.80;99.90
14682;DHT22;7429;52.498;13.480;2024-03-29T15:18:13;16.70;99.90
14682;DHT22;7429;52.498;13.480;2024-03-29T15:21:15;16.50;99.90
14682;DHT22;7429;52.498;13.480;2024-03-29T15:24:20;16.40;99.90
14682;DHT22;7429;52.498;13.480;2024-03-29T15:27:22;16.40;99.90
14682;DHT22;7429;52.498;13.480;2024-03-29T15:30:48;16.30;99.90
14682;DHT22;7429;52.498;13.480;2024-03-29T15:33:54;16.40;99.90
14682;DHT22;7429;52.498;13.480;2024-03-29T15:36:56;16.40;99.90
14682;DHT22;7429;52.498;13.480;2024-03-29T15:39:59;16.30;99.90
14682;DHT22;7429;52.498;13.480;2024-03-29T15:43:02;16.20;99.90
14682;DHT22;7429;52.498;13.480;2024-03-29T15:46:04;16.10;99.90
14682;DHT22;7429;52.498;13.480;2024-03-29T15:49:06;16.10;99.90
14682;DHT22;7429;52.498;13.480;2024-03-29T15:52:08;16.10;99.90
14682;DHT22;7429;52.498;13.480;2024-03-29T15:55:12;16.10;99.90
14682;DHT22;7429;52.498;13.480;2024-03-29T15:58:14;16.10;99.90
14682;DHT22;7429;52.498;13.480;2024-03-29T16:01:16;16.00;99.90
14682;DHT22;7429;52.498;13.480;2024-03-29T16:04:18;15.80;99.90
14682;DHT22;7429;52.498;13.480;2024-03-29T16:07:21;15.70;99.90
14682;DHT22;7429;52.498;13.480;2024-03-29T16:10:24;15.60;99.90
14682;DHT22;7429;52.498;13.480;2024-03-29T16:13:27;15.60;99.90
14682;DHT22;7429;52.498;13.480;2024-03-29T16:16:30;15.50;99.90
14682;DHT22;7429;52.498;13.480;2024-03-29T16:19:32;15.50;99.90
14682;DHT22;7429;52.498;13.480;2024-03-29T16:22:33;15.40;99.90
14682;DHT22;7429;52.498;13.480;2024-03-29T16:25:37;15.40;99.90
14682;DHT22;7429;52.498;13.480;2024-03-29T16:28:39;15.40;99.90
14682;DHT22;7429;52.498;13.480;2024-03-29T16:31:41;15.30;99.90
14682;DHT22;7429;52.498;13.480;2024-03-29T16:34:42;15.30;99.90
14682;DHT22;7429;52.498;13.480;2024-03-29T16:37:44;15.20;99.90
14682;DHT22;7429;52.498;13.480;2024-03-29T16:40:47;15.20;99.90
14682;DHT22;7429;52.498;13.480;2024-03-29T16:43:49;15.20;99.90
14682;DHT22;7429;52.498;13.480;2024-03-29T16:46:50;15.20;99.90
14682;DHT22;7429;52.498;13.480;2024-03-29T16:49:52;15.20;99.90
14682;DHT22;7429;52.498;13.480;2024-03-29T16:52:54;15.20;99.90
14682;DHT22;7429;52.498;13.480;2024-03-29T16:55:57;15.10;99.90
14682;DHT22;7429;52.498;13.480;2024-03-29T16:58:58;15.10;99.90
14682;DHT22;7429;52.498;13.480;2024-03-29T17:02:00;15.10;99.90
14682;DHT22;7429;52.498;13.480;2024-03-29T17:05:03;15.00;99.90
14682;DHT22;7429;52.498;13.480;2024-03-29T17:08:05;15.00;99.90
14682;DHT22;7429;52.498;13.480;2024-03-29T17:11:09;14.90;99.90
14682;DHT22;7429;52.498;13.480;2024-03-29T17:14:10;14.90;99.90
14682;DHT22;7429;52.498;13.480;2024-03-29T17:17:12;14.90;99.90
14682;DHT22;7429;52.498;13.480;2024-03-29T17:20:15;14.90;99.90
14682;DHT22;7429;52.498;13.480;2024-03-29T17:23:16;14.80;99.90
14682;DHT22;7429;52.498;13.480;2024-03-29T17:26:19;14.70;99.90
14682;DHT22;7429;52.498;13.480;2024-03-29T17:29:20;14.70;99.90
14682;DHT22;7429;52.498;13.480;2024-03-29T17:32:23;14.60;99.90
14682;DHT22;7429;52.498;13.480;2024-03-29T17:35:25;14.60;99.90
14682;DHT22;7429;52.498;13.480;2024-03-29T17:38:27;14.50;99.90
14682;DHT22;7429;52.498;13.480;2024-03-29T17:41:30;14.50;99.90
14682;DHT22;7429;52.498;13.480;2024-03-29T17:44:32;14.50;99.90
14682;DHT22;7429;52.498;13.480;2024-03-29T17:47:34;14.50;99.90
14682;DHT22;7429;52.498;13.480;2024-03-29T17:50:37;14.50;99.90
14682;DHT22;7429;52.498;13.480;2024-03-29T17:53:38;14.40;99.90
14682;DHT22;7429;52.498;13.480;2024-03-29T17:56:41;14.30;99.90
14682;DHT22;7429;52.498;13.480;2024-03-29T17:59:43;14.30;99.90
14682;DHT22;7429;52.498;13.480;2024-03-29T18:02:45;14.20;99.90
14682;DHT22;7429;52.498;13.480;2024-03-29T18:05:46;14.20;99.90
14682;DHT22;7429;52.498;13.480;2024-03-29T18:08:48;14.10;99.90
14682;DHT22;7429;52.498;13.480;2024-03-29T18:11:51;14.20;99.90
14682;DHT22;7429;52.498;13.480;2024-03-29T18:14:53;14.10;99.90
14682;DHT22;7429;52.498;13.480;2024-03-29T18:17:56;14.10;99.90
14682;DHT22;7429;52.498;13.480;2024-03-29T18:20:58;14.10;99.90
14682;DHT22;7429;52.498;13.480;2024-03-29T18:24:00;14.00;99.90
14682;DHT22;7429;52.498;13.480;2024-03-29T18:27:03;14.00;99.90
14682;DHT22;7429;52.498;13.480;2024-03-29T18:30:06;14.00;99.90
14682;DHT22;7429;52.498;13.480;2024-03-29T18:33:09;14.00;99.90
14682;DHT22;7429;52.498;13.480;2024-03-29T18:36:12;14.00;99.90
14682;DHT22;7429;52.498;13.480;2024-03-29T18:39:14;14.00;99.90
14682;DHT22;7429;52.498;13.480;2024-03-29T18:42:16;13.90;99.90
14682;DHT22;7429;52.498;13.480;2024-03-29T18:45:19;13.90;99.90
14682;DHT22;7429;52.498;13.480;2024-03-29T18:48:21;13.90;99.90
14682;DHT22;7429;52.498;13.480;2024-03-29T18:51:23;13.90;99.90
14682;DHT22;7429;52.498;13.480;2024-03-29T18:54:26;13.80;99.90
14682;DHT22;7429;52.498;13.480;2024-03-29T18:57:29;13.80;99.90
14682;DHT22;7429;52.498;13.480;2024-03-29T19:00:30;13.80;99.90
14682;DHT22;7429;52.498;13.480;2024-03-29T19:03:32;13.80;99.90
14682;DHT22;7429;52.498;13.480;2024-03-29T19:06:34;13.80;99.90
14682;DHT22;7429;52.498;13.480;2024-03-29T19:09:36;13.80;99.90
14682;DHT22;7429;52.498;13.480;2024-03-29T19:12:40;13.80;99.90
14682;DHT22;7429;52.498;13.480;2024-03-29T19:15:41;13.80;99.90
14682;DHT22;7429;52.498;13.480;2024-03-29T19:18:44;13.80;99.90
14682;DHT22;7429;52.498;13.480;2024-03-29T19:21:45;13.80;99.90
14682;DHT22;7429;52.498;13.480;2024-03-29T19:24:48;13.80;99.90